QFA203 YSSY-YBBN
Flight info
| Callsign | QFA203 |
|---|---|
| Flight time | 1h 14m |
| Altitude | 35000 |
| Route | OLSEM Y193 BANDA H252 GOMOL |
| Aircraft | B738/M-SDE2E3FGHIRWXY/LB1 |
Departure
| Time | 2026-04-26 07:12 |
|---|---|
| Airport | Sydney Kingsford Smith International Airport (YSSY) |
Arrival
| Time | 2026-04-26 08:26 |
|---|---|
| Airport | Brisbane International Airport (YBBN) |
| Time | Latitude | Longitude | Altitude | Speed | Heading |
|---|---|---|---|---|---|
| 2026-04-26 06:26 | -33.93156 | 151.17857 | 30 ft | 0 kts | 190° |
| 2026-04-26 06:49 | -33.93146 | 151.17859 | 30 ft | 4 kts | 193° |
| 2026-04-26 06:49 | -33.93120 | 151.17869 | 30 ft | 4 kts | 207° |
| 2026-04-26 06:50 | -33.93098 | 151.17887 | 30 ft | 4 kts | 226° |
| 2026-04-26 06:50 | -33.93083 | 151.17912 | 30 ft | 4 kts | 252° |
| 2026-04-26 06:50 | -33.93080 | 151.17941 | 30 ft | 2 kts | 279° |
| 2026-04-26 06:50 | -33.93080 | 151.17943 | 30 ft | 0 kts | 279° |
| 2026-04-26 06:55 | -33.93075 | 151.17909 | 30 ft | 9 kts | 279° |
| 2026-04-26 06:56 | -33.93061 | 151.17816 | 29 ft | 12 kts | 280° |
| 2026-04-26 06:56 | -33.93037 | 151.17721 | 29 ft | 12 kts | 295° |
| 2026-04-26 06:56 | -33.93007 | 151.17623 | 29 ft | 14 kts | 287° |
| 2026-04-26 06:56 | -33.93048 | 151.17537 | 29 ft | 13 kts | 205° |
| 2026-04-26 06:57 | -33.93136 | 151.17529 | 29 ft | 13 kts | 168° |
| 2026-04-26 06:57 | -33.93224 | 151.17551 | 29 ft | 14 kts | 168° |
| 2026-04-26 06:57 | -33.93326 | 151.17577 | 29 ft | 16 kts | 167° |
| 2026-04-26 06:57 | -33.93448 | 151.17587 | 28 ft | 20 kts | 189° |
| 2026-04-26 06:58 | -33.93581 | 151.17608 | 26 ft | 17 kts | 167° |
| 2026-04-26 06:58 | -33.93686 | 151.17664 | 29 ft | 17 kts | 152° |
| 2026-04-26 06:58 | -33.93815 | 151.17707 | 18 ft | 20 kts | 159° |
| 2026-04-26 06:58 | -33.93933 | 151.17789 | 21 ft | 20 kts | 167° |
| 2026-04-26 06:59 | -33.94063 | 151.17823 | 22 ft | 19 kts | 167° |
| 2026-04-26 06:59 | -33.94197 | 151.17859 | 25 ft | 20 kts | 167° |
| 2026-04-26 06:59 | -33.94342 | 151.17898 | 25 ft | 22 kts | 167° |
| 2026-04-26 06:59 | -33.94487 | 151.17892 | 23 ft | 22 kts | 197° |
| 2026-04-26 07:00 | -33.94646 | 151.17916 | 25 ft | 24 kts | 167° |
| 2026-04-26 07:00 | -33.94822 | 151.17963 | 20 ft | 27 kts | 168° |
| 2026-04-26 07:00 | -33.94972 | 151.18002 | 24 ft | 19 kts | 168° |
| 2026-04-26 07:00 | -33.95092 | 151.18055 | 26 ft | 18 kts | 124° |
| 2026-04-26 07:01 | -33.95084 | 151.18204 | 23 ft | 19 kts | 77° |
| 2026-04-26 07:01 | -33.95059 | 151.18353 | 25 ft | 18 kts | 78° |
| 2026-04-26 07:01 | -33.95050 | 151.18402 | 25 ft | 0 kts | 77° |
| 2026-04-26 07:02 | -33.95046 | 151.18425 | 28 ft | 6 kts | 77° |
| 2026-04-26 07:03 | -33.95048 | 151.18476 | 27 ft | 6 kts | 112° |
| 2026-04-26 07:03 | -33.95078 | 151.18511 | 30 ft | 6 kts | 148° |
| 2026-04-26 07:03 | -33.95123 | 151.18549 | 27 ft | 10 kts | 139° |
| 2026-04-26 07:03 | -33.95185 | 151.18619 | 28 ft | 15 kts | 136° |
| 2026-04-26 07:04 | -33.95282 | 151.18705 | 27 ft | 20 kts | 156° |
| 2026-04-26 07:04 | -33.95438 | 151.18753 | 21 ft | 26 kts | 168° |
| 2026-04-26 07:04 | -33.95623 | 151.18802 | 25 ft | 27 kts | 167° |
| 2026-04-26 07:04 | -33.95803 | 151.18848 | 27 ft | 26 kts | 168° |
| 2026-04-26 07:05 | -33.95974 | 151.18893 | 26 ft | 24 kts | 167° |
| 2026-04-26 07:05 | -33.96129 | 151.18933 | 26 ft | 23 kts | 168° |
| 2026-04-26 07:05 | -33.96281 | 151.18973 | 27 ft | 22 kts | 168° |
| 2026-04-26 07:05 | -33.96432 | 151.19011 | 20 ft | 22 kts | 168° |
| 2026-04-26 07:06 | -33.96583 | 151.19050 | 18 ft | 22 kts | 167° |
| 2026-04-26 07:06 | -33.96734 | 151.19079 | 18 ft | 22 kts | 187° |
| 2026-04-26 07:06 | -33.96880 | 151.19084 | 18 ft | 21 kts | 168° |
| 2026-04-26 07:06 | -33.97019 | 151.19121 | 19 ft | 19 kts | 168° |
| 2026-04-26 07:07 | -33.97124 | 151.19171 | 20 ft | 16 kts | 128° |
| 2026-04-26 07:07 | -33.97123 | 151.19261 | 20 ft | 0 kts | 77° |
| 2026-04-26 07:11 | -33.97105 | 151.19350 | 22 ft | 8 kts | 76° |
| 2026-04-26 07:11 | -33.97060 | 151.19373 | 20 ft | 8 kts | 352° |
| 2026-04-26 07:11 | -33.97043 | 151.19369 | 20 ft | 0 kts | 348° |
| 2026-04-26 07:11 | -33.97033 | 151.19367 | 20 ft | 5 kts | 348° |
| 2026-04-26 07:12 | -33.96845 | 151.19324 | 18 ft | 68 kts | 348° |
| 2026-04-26 07:12 | -33.96088 | 151.19138 | 33 ft | 150 kts | 355° |
| 2026-04-26 07:12 | -33.94908 | 151.18836 | 379 ft | 197 kts | 349° |
| 2026-04-26 07:12 | -33.93481 | 151.18553 | 1056 ft | 218 kts | 5° |
| 2026-04-26 07:13 | -33.92030 | 151.19350 | 1628 ft | 242 kts | 41° |
| 2026-04-26 07:13 | -33.90785 | 151.20749 | 2724 ft | 244 kts | 40° |
| 2026-04-26 07:13 | -33.89454 | 151.22066 | 3608 ft | 250 kts | 37° |
| 2026-04-26 07:13 | -33.88051 | 151.23355 | 4341 ft | 255 kts | 36° |
| 2026-04-26 07:14 | -33.86618 | 151.24628 | 4827 ft | 257 kts | 35° |
| 2026-04-26 07:14 | -33.85134 | 151.25928 | 4985 ft | 269 kts | 35° |
| 2026-04-26 07:14 | -33.83768 | 151.27453 | 4984 ft | 270 kts | 57° |
| 2026-04-26 07:14 | -33.83047 | 151.29520 | 5015 ft | 270 kts | 71° |
| 2026-04-26 07:15 | -33.82476 | 151.31676 | 5011 ft | 271 kts | 71° |
| 2026-04-26 07:15 | -33.81913 | 151.33857 | 5007 ft | 272 kts | 71° |
| 2026-04-26 07:15 | -33.81301 | 151.35999 | 5005 ft | 270 kts | 60° |
| 2026-04-26 07:15 | -33.80236 | 151.37796 | 5021 ft | 264 kts | 49° |
| 2026-04-26 07:16 | -33.79061 | 151.39494 | 5011 ft | 264 kts | 49° |
| 2026-04-26 07:16 | -33.77895 | 151.41181 | 5005 ft | 262 kts | 48° |
| 2026-04-26 07:16 | -33.76733 | 151.42870 | 5010 ft | 261 kts | 48° |
| 2026-04-26 07:16 | -33.75581 | 151.44556 | 5015 ft | 260 kts | 49° |
| 2026-04-26 07:17 | -33.74428 | 151.46249 | 5020 ft | 263 kts | 48° |
| 2026-04-26 07:17 | -33.73268 | 151.47960 | 5026 ft | 264 kts | 50° |
| 2026-04-26 07:17 | -33.72123 | 151.49653 | 5021 ft | 264 kts | 49° |
| 2026-04-26 07:17 | -33.70965 | 151.51365 | 5022 ft | 263 kts | 50° |
| 2026-04-26 07:18 | -33.69811 | 151.53072 | 5022 ft | 263 kts | 49° |
| 2026-04-26 07:18 | -33.68658 | 151.54778 | 5016 ft | 263 kts | 50° |
| 2026-04-26 07:18 | -33.67508 | 151.56477 | 5023 ft | 261 kts | 49° |
| 2026-04-26 07:18 | -33.66363 | 151.58169 | 5016 ft | 261 kts | 50° |
| 2026-04-26 07:19 | -33.65215 | 151.59861 | 5019 ft | 260 kts | 49° |
| 2026-04-26 07:19 | -33.63894 | 151.61321 | 5016 ft | 259 kts | 33° |
| 2026-04-26 07:19 | -33.62380 | 151.62489 | 5085 ft | 259 kts | 31° |
| 2026-04-26 07:19 | -33.60835 | 151.63668 | 5559 ft | 267 kts | 32° |
| 2026-04-26 07:20 | -33.59289 | 151.64858 | 6429 ft | 271 kts | 33° |
| 2026-04-26 07:20 | -33.57683 | 151.66104 | 7195 ft | 276 kts | 33° |
| 2026-04-26 07:20 | -33.56074 | 151.67360 | 8116 ft | 277 kts | 34° |
| 2026-04-26 07:20 | -33.54442 | 151.68638 | 8928 ft | 281 kts | 34° |
| 2026-04-26 07:21 | -33.52801 | 151.69925 | 9790 ft | 284 kts | 34° |
| 2026-04-26 07:21 | -33.51128 | 151.71238 | 10525 ft | 290 kts | 34° |
| 2026-04-26 07:21 | -33.49392 | 151.72506 | 11269 ft | 294 kts | 25° |
| 2026-04-26 07:21 | -33.47437 | 151.73293 | 12063 ft | 297 kts | 15° |
| 2026-04-26 07:22 | -33.45436 | 151.73910 | 12685 ft | 307 kts | 15° |
| 2026-04-26 07:22 | -33.43276 | 151.74576 | 12898 ft | 331 kts | 15° |
| 2026-04-26 07:22 | -33.41007 | 151.75294 | 13429 ft | 342 kts | 15° |
| 2026-04-26 07:22 | -33.38704 | 151.76034 | 14174 ft | 345 kts | 15° |
| 2026-04-26 07:23 | -33.36369 | 151.76788 | 14894 ft | 347 kts | 16° |
| 2026-04-26 07:23 | -33.34028 | 151.77546 | 15614 ft | 350 kts | 16° |
| 2026-04-26 07:23 | -33.31662 | 151.78310 | 16316 ft | 353 kts | 15° |
| 2026-04-26 07:23 | -33.29281 | 151.79079 | 16988 ft | 357 kts | 16° |
| 2026-04-26 07:24 | -33.26868 | 151.79858 | 17662 ft | 361 kts | 17° |
| 2026-04-26 07:24 | -33.24431 | 151.80645 | 18332 ft | 364 kts | 17° |
| 2026-04-26 07:24 | -33.22003 | 151.81428 | 18937 ft | 367 kts | 16° |
| 2026-04-26 07:24 | -33.19526 | 151.82226 | 19504 ft | 371 kts | 17° |
| 2026-04-26 07:25 | -33.16992 | 151.83042 | 20092 ft | 374 kts | 17° |
| 2026-04-26 07:25 | -33.14501 | 151.83844 | 20649 ft | 377 kts | 17° |
| 2026-04-26 07:25 | -33.11951 | 151.84664 | 21214 ft | 381 kts | 17° |
| 2026-04-26 07:25 | -33.09376 | 151.85492 | 21743 ft | 385 kts | 17° |
| 2026-04-26 07:26 | -33.06775 | 151.86327 | 22281 ft | 389 kts | 17° |
| 2026-04-26 07:26 | -33.04151 | 151.87170 | 22811 ft | 392 kts | 17° |
| 2026-04-26 07:26 | -33.01502 | 151.88020 | 23355 ft | 395 kts | 17° |
| 2026-04-26 07:26 | -32.98837 | 151.88875 | 23864 ft | 399 kts | 17° |
| 2026-04-26 07:27 | -32.96150 | 151.89736 | 24287 ft | 402 kts | 16° |
| 2026-04-26 07:27 | -32.93440 | 151.90604 | 24713 ft | 405 kts | 16° |
| 2026-04-26 07:27 | -32.90704 | 151.91480 | 25131 ft | 408 kts | 16° |
| 2026-04-26 07:27 | -32.87948 | 151.92361 | 25534 ft | 412 kts | 17° |
| 2026-04-26 07:28 | -32.85172 | 151.93249 | 25902 ft | 416 kts | 16° |
| 2026-04-26 07:28 | -32.82361 | 151.94147 | 26360 ft | 417 kts | 16° |
| 2026-04-26 07:28 | -32.79567 | 151.95038 | 26928 ft | 415 kts | 16° |
| 2026-04-26 07:28 | -32.76778 | 151.95927 | 27524 ft | 413 kts | 16° |
| 2026-04-26 07:29 | -32.74006 | 151.96810 | 28060 ft | 412 kts | 16° |
| 2026-04-26 07:29 | -32.71252 | 151.97688 | 28280 ft | 420 kts | 16° |
| 2026-04-26 07:29 | -32.68389 | 151.98601 | 28364 ft | 430 kts | 16° |
| 2026-04-26 07:29 | -32.65471 | 151.99530 | 28566 ft | 437 kts | 16° |
| 2026-04-26 07:30 | -32.62531 | 152.00465 | 28935 ft | 439 kts | 16° |
| 2026-04-26 07:30 | -32.59568 | 152.01407 | 29323 ft | 441 kts | 16° |
| 2026-04-26 07:30 | -32.56600 | 152.02348 | 29685 ft | 443 kts | 16° |
| 2026-04-26 07:30 | -32.54614 | 152.02979 | 29895 ft | 445 kts | 16° |
| 2026-04-26 07:31 | -32.51611 | 152.03931 | 30217 ft | 448 kts | 16° |
| 2026-04-26 07:31 | -32.48580 | 152.04892 | 30512 ft | 450 kts | 16° |
| 2026-04-26 07:31 | -32.45550 | 152.05851 | 30798 ft | 452 kts | 15° |
| 2026-04-26 07:31 | -32.42486 | 152.06821 | 31056 ft | 455 kts | 15° |
| 2026-04-26 07:32 | -32.39421 | 152.07790 | 31306 ft | 457 kts | 15° |
| 2026-04-26 07:32 | -32.36374 | 152.08754 | 31577 ft | 459 kts | 15° |
| 2026-04-26 07:32 | -32.33284 | 152.09730 | 31849 ft | 461 kts | 15° |
| 2026-04-26 07:32 | -32.30181 | 152.10709 | 32105 ft | 462 kts | 15° |
| 2026-04-26 07:33 | -32.27064 | 152.11692 | 32346 ft | 464 kts | 15° |
| 2026-04-26 07:33 | -32.23933 | 152.12679 | 32581 ft | 466 kts | 15° |
| 2026-04-26 07:33 | -32.20788 | 152.13669 | 32782 ft | 469 kts | 15° |
| 2026-04-26 07:33 | -32.17627 | 152.14664 | 32984 ft | 471 kts | 15° |
| 2026-04-26 07:34 | -32.14449 | 152.15664 | 33225 ft | 472 kts | 15° |
| 2026-04-26 07:34 | -32.11269 | 152.16663 | 33463 ft | 473 kts | 15° |
| 2026-04-26 07:34 | -32.08076 | 152.17666 | 33684 ft | 475 kts | 15° |
| 2026-04-26 07:34 | -32.04879 | 152.18669 | 33883 ft | 477 kts | 15° |
| 2026-04-26 07:35 | -32.01667 | 152.19677 | 34085 ft | 478 kts | 15° |
| 2026-04-26 07:35 | -31.98440 | 152.20688 | 34248 ft | 480 kts | 15° |
| 2026-04-26 07:35 | -31.95206 | 152.21700 | 34392 ft | 482 kts | 15° |
| 2026-04-26 07:35 | -31.91992 | 152.22706 | 34538 ft | 483 kts | 15° |
| 2026-04-26 07:36 | -31.88739 | 152.23723 | 34689 ft | 483 kts | 15° |
| 2026-04-26 07:36 | -31.85487 | 152.24739 | 34970 ft | 480 kts | 15° |
| 2026-04-26 07:36 | -31.82264 | 152.25746 | 35003 ft | 479 kts | 15° |
| 2026-04-26 07:37 | -31.75852 | 152.27746 | 35014 ft | 475 kts | 14° |
| 2026-04-26 07:37 | -31.69489 | 152.29728 | 35033 ft | 476 kts | 14° |
| 2026-04-26 07:38 | -31.63080 | 152.31721 | 35038 ft | 477 kts | 14° |
| 2026-04-26 07:38 | -31.56653 | 152.33717 | 35031 ft | 478 kts | 14° |
| 2026-04-26 07:39 | -31.50210 | 152.35715 | 35031 ft | 478 kts | 14° |
| 2026-04-26 07:39 | -31.43771 | 152.37709 | 35036 ft | 478 kts | 14° |
| 2026-04-26 07:40 | -31.37331 | 152.39701 | 35033 ft | 478 kts | 14° |
| 2026-04-26 07:40 | -31.30894 | 152.41689 | 35024 ft | 478 kts | 14° |
| 2026-04-26 07:41 | -31.24453 | 152.43675 | 35040 ft | 478 kts | 14° |
| 2026-04-26 07:41 | -31.18011 | 152.45659 | 35032 ft | 478 kts | 14° |
| 2026-04-26 07:42 | -31.11633 | 152.47620 | 35029 ft | 478 kts | 14° |
| 2026-04-26 07:42 | -31.05200 | 152.49596 | 35021 ft | 478 kts | 14° |
| 2026-04-26 07:43 | -30.98765 | 152.51570 | 35029 ft | 478 kts | 14° |
| 2026-04-26 07:43 | -30.92318 | 152.53546 | 35034 ft | 479 kts | 14° |
| 2026-04-26 07:44 | -30.85904 | 152.55506 | 35024 ft | 479 kts | 14° |
| 2026-04-26 07:44 | -30.79454 | 152.57477 | 35033 ft | 480 kts | 14° |
| 2026-04-26 07:45 | -30.73040 | 152.59710 | 35037 ft | 481 kts | 17° |
| 2026-04-26 07:45 | -30.66658 | 152.62099 | 35029 ft | 481 kts | 17° |
| 2026-04-26 07:46 | -30.60282 | 152.64457 | 35031 ft | 481 kts | 16° |
| 2026-04-26 07:46 | -30.53883 | 152.66783 | 35029 ft | 481 kts | 16° |
| 2026-04-26 07:47 | -30.47472 | 152.69096 | 35029 ft | 482 kts | 16° |
| 2026-04-26 07:47 | -30.41110 | 152.71389 | 35027 ft | 482 kts | 16° |
| 2026-04-26 07:48 | -30.34714 | 152.73694 | 35029 ft | 482 kts | 16° |
| 2026-04-26 07:48 | -30.28304 | 152.76001 | 35031 ft | 482 kts | 16° |
| 2026-04-26 07:49 | -30.21903 | 152.78302 | 35021 ft | 481 kts | 16° |
| 2026-04-26 07:49 | -30.15505 | 152.80599 | 35019 ft | 481 kts | 15° |
| 2026-04-26 07:50 | -30.05904 | 152.84039 | 35022 ft | 481 kts | 16° |
| 2026-04-26 07:50 | -29.99545 | 152.86315 | 35021 ft | 482 kts | 15° |
| 2026-04-26 07:51 | -29.93132 | 152.88606 | 35008 ft | 482 kts | 15° |
| 2026-04-26 07:51 | -29.86727 | 152.90890 | 35009 ft | 482 kts | 15° |
| 2026-04-26 07:52 | -29.80319 | 152.93171 | 35010 ft | 482 kts | 15° |
| 2026-04-26 07:52 | -29.73906 | 152.95452 | 34999 ft | 482 kts | 15° |
| 2026-04-26 07:53 | -29.67482 | 152.97734 | 34996 ft | 482 kts | 15° |
| 2026-04-26 07:53 | -29.61102 | 152.99998 | 34999 ft | 482 kts | 15° |
| 2026-04-26 07:54 | -29.54681 | 153.02273 | 34998 ft | 483 kts | 15° |
| 2026-04-26 07:54 | -29.48257 | 153.04547 | 34998 ft | 483 kts | 15° |
| 2026-04-26 07:55 | -29.41827 | 153.06819 | 34988 ft | 483 kts | 15° |
| 2026-04-26 07:55 | -29.35431 | 153.09077 | 34997 ft | 484 kts | 15° |
| 2026-04-26 07:56 | -29.28992 | 153.11347 | 34996 ft | 484 kts | 15° |
| 2026-04-26 07:56 | -29.22542 | 153.13617 | 35002 ft | 484 kts | 15° |
| 2026-04-26 07:57 | -29.16091 | 153.15885 | 34985 ft | 484 kts | 14° |
| 2026-04-26 07:57 | -29.12853 | 153.17021 | 34665 ft | 490 kts | 14° |
| 2026-04-26 07:57 | -29.09588 | 153.18167 | 34214 ft | 491 kts | 14° |
| 2026-04-26 07:58 | -29.06371 | 153.19296 | 33736 ft | 488 kts | 15° |
| 2026-04-26 07:58 | -29.03130 | 153.20433 | 33230 ft | 488 kts | 15° |
| 2026-04-26 07:58 | -28.99875 | 153.21574 | 32688 ft | 490 kts | 15° |
| 2026-04-26 07:58 | -28.96610 | 153.22717 | 32139 ft | 491 kts | 15° |
| 2026-04-26 07:59 | -28.93359 | 153.23855 | 31581 ft | 485 kts | 15° |
| 2026-04-26 07:59 | -28.90148 | 153.24979 | 31046 ft | 481 kts | 15° |
| 2026-04-26 07:59 | -28.86944 | 153.26100 | 30516 ft | 478 kts | 15° |
| 2026-04-26 07:59 | -28.83809 | 153.27195 | 29953 ft | 474 kts | 15° |
| 2026-04-26 08:00 | -28.80667 | 153.28292 | 29353 ft | 471 kts | 15° |
| 2026-04-26 08:00 | -28.77545 | 153.29381 | 28758 ft | 467 kts | 15° |
| 2026-04-26 08:00 | -28.74444 | 153.30462 | 28181 ft | 463 kts | 16° |
| 2026-04-26 08:00 | -28.71375 | 153.31531 | 27602 ft | 460 kts | 15° |
| 2026-04-26 08:01 | -28.68328 | 153.32591 | 27058 ft | 456 kts | 15° |
| 2026-04-26 08:01 | -28.65304 | 153.33644 | 26500 ft | 452 kts | 16° |
| 2026-04-26 08:01 | -28.62305 | 153.34687 | 25969 ft | 449 kts | 16° |
| 2026-04-26 08:01 | -28.59331 | 153.35721 | 25447 ft | 445 kts | 16° |
| 2026-04-26 08:02 | -28.56379 | 153.36746 | 24931 ft | 442 kts | 16° |
| 2026-04-26 08:02 | -28.53449 | 153.37763 | 24418 ft | 439 kts | 17° |
| 2026-04-26 08:02 | -28.50542 | 153.38772 | 23917 ft | 435 kts | 17° |
| 2026-04-26 08:02 | -28.47654 | 153.39773 | 23355 ft | 432 kts | 17° |
| 2026-04-26 08:03 | -28.44793 | 153.40765 | 22847 ft | 427 kts | 17° |
| 2026-04-26 08:03 | -28.41973 | 153.41742 | 22357 ft | 422 kts | 17° |
| 2026-04-26 08:03 | -28.39173 | 153.42711 | 21895 ft | 417 kts | 17° |
| 2026-04-26 08:03 | -28.36415 | 153.43664 | 21440 ft | 412 kts | 17° |
| 2026-04-26 08:04 | -28.33681 | 153.44609 | 20986 ft | 408 kts | 18° |
| 2026-04-26 08:04 | -28.31011 | 153.45533 | 20540 ft | 404 kts | 18° |
| 2026-04-26 08:04 | -28.28334 | 153.46458 | 20099 ft | 399 kts | 18° |
| 2026-04-26 08:04 | -28.25694 | 153.47370 | 19664 ft | 395 kts | 18° |
| 2026-04-26 08:05 | -28.23071 | 153.48276 | 19233 ft | 392 kts | 18° |
| 2026-04-26 08:05 | -28.20474 | 153.49174 | 18815 ft | 388 kts | 18° |
| 2026-04-26 08:05 | -28.17892 | 153.50025 | 18384 ft | 385 kts | 14° |
| 2026-04-26 08:05 | -28.15224 | 153.50159 | 17884 ft | 386 kts | 354° |
| 2026-04-26 08:06 | -28.12595 | 153.49644 | 17453 ft | 382 kts | 350° |
| 2026-04-26 08:06 | -28.09989 | 153.49068 | 16994 ft | 379 kts | 351° |
| 2026-04-26 08:06 | -28.07404 | 153.48494 | 16537 ft | 376 kts | 351° |
| 2026-04-26 08:06 | -28.04841 | 153.47936 | 16084 ft | 373 kts | 351° |
| 2026-04-26 08:07 | -28.02309 | 153.47393 | 15635 ft | 366 kts | 351° |
| 2026-04-26 08:07 | -27.99857 | 153.46876 | 15195 ft | 359 kts | 352° |
| 2026-04-26 08:07 | -27.97438 | 153.46373 | 14758 ft | 352 kts | 352° |
| 2026-04-26 08:07 | -27.95048 | 153.45878 | 14332 ft | 346 kts | 353° |
| 2026-04-26 08:08 | -27.92697 | 153.45390 | 13894 ft | 340 kts | 352° |
| 2026-04-26 08:08 | -27.90383 | 153.44913 | 13405 ft | 335 kts | 352° |
| 2026-04-26 08:08 | -27.88100 | 153.44445 | 12943 ft | 331 kts | 353° |
| 2026-04-26 08:08 | -27.85850 | 153.43981 | 12481 ft | 327 kts | 353° |
| 2026-04-26 08:09 | -27.83628 | 153.43522 | 12030 ft | 323 kts | 352° |
| 2026-04-26 08:09 | -27.81426 | 153.43091 | 11592 ft | 319 kts | 352° |
| 2026-04-26 08:09 | -27.79253 | 153.42638 | 11148 ft | 316 kts | 352° |
| 2026-04-26 08:09 | -27.77104 | 153.42186 | 10712 ft | 313 kts | 352° |
| 2026-04-26 08:10 | -27.74988 | 153.41745 | 10314 ft | 310 kts | 352° |
| 2026-04-26 08:10 | -27.72907 | 153.41312 | 10217 ft | 297 kts | 352° |
| 2026-04-26 08:10 | -27.70909 | 153.40899 | 10191 ft | 288 kts | 352° |
| 2026-04-26 08:10 | -27.68950 | 153.40496 | 10195 ft | 285 kts | 353° |
| 2026-04-26 08:11 | -27.66998 | 153.40095 | 10202 ft | 286 kts | 352° |
| 2026-04-26 08:11 | -27.65019 | 153.39688 | 10215 ft | 291 kts | 352° |
| 2026-04-26 08:11 | -27.63005 | 153.39374 | 10016 ft | 294 kts | 1° |
| 2026-04-26 08:11 | -27.60970 | 153.39411 | 9836 ft | 292 kts | 6° |
| 2026-04-26 08:12 | -27.58947 | 153.39543 | 9579 ft | 289 kts | 7° |
| 2026-04-26 08:12 | -27.56945 | 153.39680 | 9331 ft | 286 kts | 6° |
| 2026-04-26 08:12 | -27.54965 | 153.39804 | 9066 ft | 283 kts | 6° |
| 2026-04-26 08:12 | -27.53004 | 153.39915 | 8807 ft | 281 kts | 6° |
| 2026-04-26 08:13 | -27.51085 | 153.40016 | 8554 ft | 279 kts | 6° |
| 2026-04-26 08:13 | -27.49152 | 153.40112 | 8299 ft | 277 kts | 6° |
| 2026-04-26 08:13 | -27.47228 | 153.40204 | 8052 ft | 275 kts | 6° |
| 2026-04-26 08:13 | -27.45313 | 153.40294 | 7804 ft | 274 kts | 6° |
| 2026-04-26 08:14 | -27.43412 | 153.40382 | 7558 ft | 272 kts | 6° |
| 2026-04-26 08:14 | -27.41544 | 153.40468 | 7315 ft | 270 kts | 6° |
| 2026-04-26 08:14 | -27.39673 | 153.40553 | 7078 ft | 268 kts | 6° |
| 2026-04-26 08:14 | -27.37815 | 153.40638 | 6838 ft | 267 kts | 6° |
| 2026-04-26 08:15 | -27.35963 | 153.40723 | 6595 ft | 265 kts | 6° |
| 2026-04-26 08:15 | -27.34122 | 153.40806 | 6334 ft | 264 kts | 6° |
| 2026-04-26 08:15 | -27.32287 | 153.40890 | 6077 ft | 262 kts | 6° |
| 2026-04-26 08:15 | -27.30472 | 153.40973 | 5840 ft | 261 kts | 6° |
| 2026-04-26 08:16 | -27.28663 | 153.41056 | 5591 ft | 259 kts | 6° |
| 2026-04-26 08:16 | -27.26861 | 153.41138 | 5343 ft | 259 kts | 6° |
| 2026-04-26 08:16 | -27.25067 | 153.41220 | 5092 ft | 258 kts | 6° |
| 2026-04-26 08:16 | -27.23277 | 153.41301 | 4843 ft | 257 kts | 6° |
| 2026-04-26 08:17 | -27.21492 | 153.41380 | 4588 ft | 256 kts | 6° |
| 2026-04-26 08:17 | -27.20310 | 153.41396 | 4413 ft | 258 kts | 358° |
| 2026-04-26 08:17 | -27.18180 | 153.40275 | 4081 ft | 257 kts | 320° |
| 2026-04-26 08:17 | -27.17283 | 153.39401 | 4018 ft | 248 kts | 321° |
| 2026-04-26 08:18 | -27.16003 | 153.38181 | 3975 ft | 235 kts | 321° |
| 2026-04-26 08:18 | -27.14765 | 153.37012 | 4008 ft | 231 kts | 321° |
| 2026-04-26 08:18 | -27.13569 | 153.35827 | 3977 ft | 226 kts | 311° |
| 2026-04-26 08:18 | -27.12946 | 153.34298 | 3991 ft | 216 kts | 271° |
| 2026-04-26 08:19 | -27.13102 | 153.32656 | 3987 ft | 209 kts | 245° |
| 2026-04-26 08:19 | -27.13863 | 153.30776 | 3969 ft | 189 kts | 238° |
| 2026-04-26 08:19 | -27.14234 | 153.29906 | 3965 ft | 176 kts | 238° |
| 2026-04-26 08:19 | -27.14746 | 153.28705 | 4030 ft | 170 kts | 238° |
| 2026-04-26 08:20 | -27.15255 | 153.27516 | 3999 ft | 172 kts | 238° |
| 2026-04-26 08:20 | -27.15779 | 153.26311 | 3996 ft | 170 kts | 233° |
| 2026-04-26 08:20 | -27.16604 | 153.25485 | 4007 ft | 153 kts | 195° |
| 2026-04-26 08:20 | -27.17578 | 153.24960 | 3990 ft | 157 kts | 201° |
| 2026-04-26 08:21 | -27.18548 | 153.24379 | 4013 ft | 160 kts | 201° |
| 2026-04-26 08:21 | -27.19550 | 153.23790 | 3883 ft | 164 kts | 200° |
| 2026-04-26 08:21 | -27.20550 | 153.23205 | 3694 ft | 160 kts | 200° |
| 2026-04-26 08:21 | -27.21525 | 153.22639 | 3483 ft | 154 kts | 200° |
| 2026-04-26 08:22 | -27.22476 | 153.22091 | 3301 ft | 154 kts | 200° |
| 2026-04-26 08:22 | -27.23441 | 153.21535 | 3089 ft | 155 kts | 199° |
| 2026-04-26 08:22 | -27.24383 | 153.20991 | 2881 ft | 153 kts | 199° |
| 2026-04-26 08:22 | -27.25335 | 153.20443 | 2676 ft | 153 kts | 199° |
| 2026-04-26 08:23 | -27.26278 | 153.19898 | 2468 ft | 152 kts | 199° |
| 2026-04-26 08:23 | -27.27219 | 153.19356 | 2263 ft | 152 kts | 199° |
| 2026-04-26 08:23 | -27.28152 | 153.18817 | 2071 ft | 148 kts | 200° |
| 2026-04-26 08:23 | -27.29053 | 153.18298 | 1890 ft | 147 kts | 199° |
| 2026-04-26 08:24 | -27.29979 | 153.17765 | 1685 ft | 150 kts | 199° |
| 2026-04-26 08:24 | -27.30897 | 153.17235 | 1475 ft | 145 kts | 200° |
| 2026-04-26 08:24 | -27.31788 | 153.16720 | 1291 ft | 144 kts | 201° |
| 2026-04-26 08:24 | -27.32683 | 153.16205 | 1087 ft | 145 kts | 201° |
| 2026-04-26 08:25 | -27.33576 | 153.15692 | 926 ft | 144 kts | 200° |
| 2026-04-26 08:25 | -27.34459 | 153.15183 | 725 ft | 144 kts | 204° |
| 2026-04-26 08:25 | -27.35370 | 153.14644 | 504 ft | 152 kts | 206° |
| 2026-04-26 08:25 | -27.36303 | 153.14082 | 382 ft | 155 kts | 206° |
| 2026-04-26 08:26 | -27.37273 | 153.13535 | 210 ft | 159 kts | 204° |
| 2026-04-26 08:26 | -27.38250 | 153.12980 | 34 ft | 156 kts | 205° |
| 2026-04-26 08:26 | -27.39048 | 153.12521 | 17 ft | 67 kts | 206° |
| 2026-04-26 08:26 | -27.39431 | 153.12308 | 17 ft | 49 kts | 206° |
| 2026-04-26 08:27 | -27.39581 | 153.12146 | 16 ft | 16 kts | 271° |
| 2026-04-26 08:27 | -27.39523 | 153.12049 | 18 ft | 15 kts | 342° |
| 2026-04-26 08:27 | -27.39425 | 153.12084 | 17 ft | 15 kts | 28° |
| 2026-04-26 08:27 | -27.39331 | 153.12142 | 17 ft | 17 kts | 28° |
| 2026-04-26 08:28 | -27.39215 | 153.12208 | 17 ft | 21 kts | 25° |
| 2026-04-26 08:28 | -27.39072 | 153.12287 | 17 ft | 25 kts | 27° |
| 2026-04-26 08:28 | -27.38910 | 153.12379 | 16 ft | 28 kts | 27° |
| 2026-04-26 08:28 | -27.38769 | 153.12417 | 17 ft | 17 kts | 322° |
| 2026-04-26 08:29 | -27.38694 | 153.12345 | 20 ft | 12 kts | 318° |
| 2026-04-26 08:29 | -27.38621 | 153.12320 | 17 ft | 12 kts | 21° |
| 2026-04-26 08:29 | -27.38545 | 153.12356 | 17 ft | 12 kts | 2° |
| 2026-04-26 08:29 | -27.38467 | 153.12373 | 17 ft | 11 kts | 24° |
| 2026-04-26 08:30 | -27.38396 | 153.12410 | 17 ft | 11 kts | 19° |
| 2026-04-26 08:30 | -27.38320 | 153.12407 | 17 ft | 11 kts | 351° |
| 2026-04-26 08:30 | -27.38249 | 153.12384 | 19 ft | 11 kts | 332° |
| 2026-04-26 08:30 | -27.38212 | 153.12317 | 17 ft | 10 kts | 278° |
| 2026-04-26 08:31 | -27.38201 | 153.12260 | 18 ft | 5 kts | 261° |
| 2026-04-26 08:31 | -27.38226 | 153.12229 | 17 ft | 5 kts | 216° |
| 2026-04-26 08:31 | -27.38232 | 153.12224 | 17 ft | 0 kts | 214° |